sensor_id;sensor_type;location;lat;lon;timestamp;P1;P2;P0
45112;PMS5003;30873;53.908;27.576;2023-08-12T00:00:58;20.2;18.4;13.3
45112;PMS5003;30873;53.908;27.576;2023-08-12T00:05:18;23.6;21;15.6
45112;PMS5003;30873;53.908;27.576;2023-08-12T00:10:58;28;26.2;20.4
45112;PMS5003;30873;53.908;27.576;2023-08-12T00:15:44;32.4;30.8;24.2
45112;PMS5003;30873;53.908;27.576;2023-08-12T00:20:24;26.4;25.4;19
45112;PMS5003;30873;53.908;27.576;2023-08-12T00:25:44;23.3;21.9;15.8
45112;PMS5003;30873;53.908;27.576;2023-08-12T00:30:59;19.7;18.5;13.6
45112;PMS5003;30873;53.908;27.576;2023-08-12T00:35:48;20.2;17.8;11.9
45112;PMS5003;30873;53.908;27.576;2023-08-12T00:40:34;18.6;16.4;11
45112;PMS5003;30873;53.908;27.576;2023-08-12T00:45:58;18.3;16.2;10.7
45112;PMS5003;30873;53.908;27.576;2023-08-12T00:50:31;18.3;17.1;11.5
45112;PMS5003;30873;53.908;27.576;2023-08-12T00:55:58;19.5;16.7;10.6
45112;PMS5003;30873;53.908;27.576;2023-08-12T01:01:00;17.1;16.6;10.8
45112;PMS5003;30873;53.908;27.576;2023-08-12T01:05:47;18.6;17;10.8
45112;PMS5003;30873;53.908;27.576;2023-08-12T01:10:33;18.1;16.5;10.5
45112;PMS5003;30873;53.908;27.576;2023-08-12T01:15:35;18.2;16.7;10.2
45112;PMS5003;30873;53.908;27.576;2023-08-12T01:20:59;20.9;18.3;12.3
45112;PMS5003;30873;53.908;27.576;2023-08-12T01:25:32;17;15.6;10
45112;PMS5003;30873;53.908;27.576;2023-08-12T01:30:19;18.1;16.9;10.8
45112;PMS5003;30873;53.908;27.576;2023-08-12T01:36:00;18.5;16.6;11
45112;PMS5003;30873;53.908;27.576;2023-08-12T01:40:59;18.5;16;10.7
45112;PMS5003;30873;53.908;27.576;2023-08-12T01:45:19;17.6;16;10.8
45112;PMS5003;30873;53.908;27.576;2023-08-12T01:50:32;17.9;16.2;10.5
45112;PMS5003;30873;53.908;27.576;2023-08-12T01:55:37;15.8;14.7;9.8
45112;PMS5003;30873;53.908;27.576;2023-08-12T02:00:31;16.6;15.1;9.8
45112;PMS5003;30873;53.908;27.576;2023-08-12T02:05:18;16.5;14.8;10.1
45112;PMS5003;30873;53.908;27.576;2023-08-12T02:10:45;16.6;14.8;9.6
45112;PMS5003;30873;53.908;27.576;2023-08-12T02:15:19;15.6;14.3;9.6
45112;PMS5003;30873;53.908;27.576;2023-08-12T02:20:59;17.4;14.7;9.4
45112;PMS5003;30873;53.908;27.576;2023-08-12T02:25:27;15.7;14.3;9.4
45112;PMS5003;30873;53.908;27.576;2023-08-12T02:30:59;15.3;14.6;9.8
45112;PMS5003;30873;53.908;27.576;2023-08-12T02:35:45;16.5;15.1;9.9
45112;PMS5003;30873;53.908;27.576;2023-08-12T02:40:59;14.9;13.9;9.2
45112;PMS5003;30873;53.908;27.576;2023-08-12T02:45:19;15.4;13.7;9.2
45112;PMS5003;30873;53.908;27.576;2023-08-12T02:50:19;14.6;13.8;8.6
45112;PMS5003;30873;53.908;27.576;2023-08-12T02:55:23;15;12.9;8.8
45112;PMS5003;30873;53.908;27.576;2023-08-12T03:00:31;14.6;13;9
45112;PMS5003;30873;53.908;27.576;2023-08-12T03:05:31;14.6;13;8.3
45112;PMS5003;30873;53.908;27.576;2023-08-12T03:10:49;14.6;13.1;9.2
45112;PMS5003;30873;53.908;27.576;2023-08-12T03:16:01;15.2;13.5;8.8
45112;PMS5003;30873;53.908;27.576;2023-08-12T03:20:35;14.9;13.3;8.5
45112;PMS5003;30873;53.908;27.576;2023-08-12T03:25:31;14.5;13.2;8.9
45112;PMS5003;30873;53.908;27.576;2023-08-12T03:30:49;13.8;12;8.6
45112;PMS5003;30873;53.908;27.576;2023-08-12T03:35:27;13.9;11.9;8.7
45112;PMS5003;30873;53.908;27.576;2023-08-12T03:40:45;12.7;12.4;8.7
45112;PMS5003;30873;53.908;27.576;2023-08-12T03:45:38;14;12.7;8.4
45112;PMS5003;30873;53.908;27.576;2023-08-12T03:50:59;14.8;13.9;9.1
45112;PMS5003;30873;53.908;27.576;2023-08-12T03:55:31;15.7;13.8;8.8
45112;PMS5003;30873;53.908;27.576;2023-08-12T04:00:19;14.7;12.9;8.3
45112;PMS5003;30873;53.908;27.576;2023-08-12T04:05:48;14.3;13.3;8.3
45112;PMS5003;30873;53.908;27.576;2023-08-12T04:10:49;15.4;13.6;9.1
45112;PMS5003;30873;53.908;27.576;2023-08-12T04:15:59;14.2;12.8;9.1
45112;PMS5003;30873;53.908;27.576;2023-08-12T04:20:33;15.8;13.9;9.1
45112;PMS5003;30873;53.908;27.576;2023-08-12T04:25:59;13.9;12.2;8.2
45112;PMS5003;30873;53.908;27.576;2023-08-12T04:30:35;14.5;12.8;8.6
45112;PMS5003;30873;53.908;27.576;2023-08-12T04:35:59;12.4;11.7;8.2
45112;PMS5003;30873;53.908;27.576;2023-08-12T04:40:45;14.4;12.7;8.8
45112;PMS5003;30873;53.908;27.576;2023-08-12T04:45:49;13.9;11.9;8.1
45112;PMS5003;30873;53.908;27.576;2023-08-12T04:50:45;15.1;13.1;9.9
45112;PMS5003;30873;53.908;27.576;2023-08-12T04:55:45;16.2;15.2;10.6
45112;PMS5003;30873;53.908;27.576;2023-08-12T05:00:19;14.3;13.2;8.9
45112;PMS5003;30873;53.908;27.576;2023-08-12T05:05:33;13.1;11.8;9.3
45112;PMS5003;30873;53.908;27.576;2023-08-12T05:10:59;11.6;11.1;8.1
45112;PMS5003;30873;53.908;27.576;2023-08-12T05:15:31;11.6;10.7;7.7
45112;PMS5003;30873;53.908;27.576;2023-08-12T05:20:59;12.6;12;8.1
45112;PMS5003;30873;53.908;27.576;2023-08-12T05:25:59;12.7;11.8;8.8
45112;PMS5003;30873;53.908;27.576;2023-08-12T05:30:45;11.7;11.2;8.3
45112;PMS5003;30873;53.908;27.576;2023-08-12T05:35:19;13.5;12;9.4
45112;PMS5003;30873;53.908;27.576;2023-08-12T05:40:35;13;11.6;8.6
45112;PMS5003;30873;53.908;27.576;2023-08-12T05:45:59;12.4;11.9;9.1
45112;PMS5003;30873;53.908;27.576;2023-08-12T05:50:45;13.2;12.3;8.7
45112;PMS5003;30873;53.908;27.576;2023-08-12T05:55:35;13.3;11.9;8.3
45112;PMS5003;30873;53.908;27.576;2023-08-12T06:00:59;11.8;11.4;7.8
45112;PMS5003;30873;53.908;27.576;2023-08-12T06:05:59;11.3;10.4;7.3
45112;PMS5003;30873;53.908;27.576;2023-08-12T06:10:23;12;11;7.7
45112;PMS5003;30873;53.908;27.576;2023-08-12T06:15:19;12.1;11.1;7.4
45112;PMS5003;30873;53.908;27.576;2023-08-12T06:20:53;10.6;9.3;6.9
45112;PMS5003;30873;53.908;27.576;2023-08-12T06:25:45;12.6;12;9.4
45112;PMS5003;30873;53.908;27.576;2023-08-12T06:30:35;15.5;14.7;12.6
45112;PMS5003;30873;53.908;27.576;2023-08-12T06:35:19;14.6;14.2;12.1
45112;PMS5003;30873;53.908;27.576;2023-08-12T06:40:23;16.1;15.1;12.9
45112;PMS5003;30873;53.908;27.576;2023-08-12T06:45:29;15.1;14.8;11.7
45112;PMS5003;30873;53.908;27.576;2023-08-12T06:50:31;11.1;10.4;7.6
45112;PMS5003;30873;53.908;27.576;2023-08-12T06:55:59;12.5;10.8;7.6
45112;PMS5003;30873;53.908;27.576;2023-08-12T07:00:33;12.4;11.4;7.5
45112;PMS5003;30873;53.908;27.576;2023-08-12T07:05:59;11.5;10.5;7.7
45112;PMS5003;30873;53.908;27.576;2023-08-12T07:10:37;9.7;9.5;6.9
45112;PMS5003;30873;53.908;27.576;2023-08-12T07:15:23;8.6;8;6.4
45112;PMS5003;30873;53.908;27.576;2023-08-12T07:20:31;9.4;9.2;6.8
45112;PMS5003;30873;53.908;27.576;2023-08-12T07:25:23;9.1;8.3;6.3
45112;PMS5003;30873;53.908;27.576;2023-08-12T07:30:35;9.1;8.4;6.6
45112;PMS5003;30873;53.908;27.576;2023-08-12T07:35:49;9.4;8.2;6.1
45112;PMS5003;30873;53.908;27.576;2023-08-12T07:40:59;8.3;8.1;5.8
45112;PMS5003;30873;53.908;27.576;2023-08-12T07:45:19;9;8.7;6.4
45112;PMS5003;30873;53.908;27.576;2023-08-12T07:50:23;9.1;8.7;6.3
45112;PMS5003;30873;53.908;27.576;2023-08-12T07:55:55;9.1;8.5;6.3
45112;PMS5003;30873;53.908;27.576;2023-08-12T08:00:59;8.3;7.7;5.9
45112;PMS5003;30873;53.908;27.576;2023-08-12T08:05:19;8.6;8.2;6.1
45112;PMS5003;30873;53.908;27.576;2023-08-12T08:10:23;8.2;8.1;6.1
45112;PMS5003;30873;53.908;27.576;2023-08-12T08:15:59;8.6;8;5.6
45112;PMS5003;30873;53.908;27.576;2023-08-12T08:20:19;8.2;7.4;5.6
45112;PMS5003;30873;53.908;27.576;2023-08-12T08:25:35;9.1;8.6;6.3
45112;PMS5003;30873;53.908;27.576;2023-08-12T08:30:41;8.4;7.9;5.7
45112;PMS5003;30873;53.908;27.576;2023-08-12T08:35:37;7.8;7.2;5
45112;PMS5003;30873;53.908;27.576;2023-08-12T08:40:59;8.2;7.8;5.4
45112;PMS5003;30873;53.908;27.576;2023-08-12T08:45:31;9.1;7.9;5.6
45112;PMS5003;30873;53.908;27.576;2023-08-12T08:50:59;8.1;7.6;5.6
45112;PMS5003;30873;53.908;27.576;2023-08-12T08:55:19;9.4;8.7;6.3
45112;PMS5003;30873;53.908;27.576;2023-08-12T09:00:59;9.3;9;6.4
45112;PMS5003;30873;53.908;27.576;2023-08-12T09:05:45;7.4;7.2;5
45112;PMS5003;30873;53.908;27.576;2023-08-12T09:10:59;7.4;6.6;4.8
45112;PMS5003;30873;53.908;27.576;2023-08-12T09:15:45;8.6;8.3;6.4
45112;PMS5003;30873;53.908;27.576;2023-08-12T09:20:33;7.2;6.6;4.9
45112;PMS5003;30873;53.908;27.576;2023-08-12T09:25:49;8.3;7.2;5.1
45112;PMS5003;30873;53.908;27.576;2023-08-12T09:30:19;8.1;7.1;5.6
45112;PMS5003;30873;53.908;27.576;2023-08-12T09:35:59;8;7.2;5.3
45112;PMS5003;30873;53.908;27.576;2023-08-12T09:40:19;7.9;7;5.4
45112;PMS5003;30873;53.908;27.576;2023-08-12T09:45:37;8.8;8.2;6
45112;PMS5003;30873;53.908;27.576;2023-08-12T09:50:59;8;7.7;6.4
45112;PMS5003;30873;53.908;27.576;2023-08-12T09:55:45;7.7;7.5;5.9
45112;PMS5003;30873;53.908;27.576;2023-08-12T10:00:19;6.8;6.6;4.8
45112;PMS5003;30873;53.908;27.576;2023-08-12T10:05:35;9.9;9;6.8
45112;PMS5003;30873;53.908;27.576;2023-08-12T10:10:59;7;6.8;4.9
45112;PMS5003;30873;53.908;27.576;2023-08-12T10:15:45;7.3;6.6;5
45112;PMS5003;30873;53.908;27.576;2023-08-12T10:20:20;8.6;8.2;5.7
45112;PMS5003;30873;53.908;27.576;2023-08-12T10:25:59;7.5;7.3;6
45112;PMS5003;30873;53.908;27.576;2023-08-12T10:30:59;6.2;6;4.8
45112;PMS5003;30873;53.908;27.576;2023-08-12T10:35:40;6.5;6.1;4.8
45112;PMS5003;30873;53.908;27.576;2023-08-12T10:40:27;6.5;6.2;4.4
45112;PMS5003;30873;53.908;27.576;2023-08-12T10:45:46;6.3;6.3;4.6
45112;PMS5003;30873;53.908;27.576;2023-08-12T10:50:33;9.2;8.8;6.6
45112;PMS5003;30873;53.908;27.576;2023-08-12T10:55:49;6.6;6.1;4.8
45112;PMS5003;30873;53.908;27.576;2023-08-12T11:00:33;6.5;5.6;4.2
45112;PMS5003;30873;53.908;27.576;2023-08-12T11:05:45;6.2;5.9;4.4
45112;PMS5003;30873;53.908;27.576;2023-08-12T11:10:27;6.5;5.9;4.3
45112;PMS5003;30873;53.908;27.576;2023-08-12T11:15:37;5.8;5.7;4.2
45112;PMS5003;30873;53.908;27.576;2023-08-12T11:20:59;7.5;7.2;5.3
45112;PMS5003;30873;53.908;27.576;2023-08-12T11:25:23;6.3;5.6;3.8
45112;PMS5003;30873;53.908;27.576;2023-08-12T11:30:59;19.9;19;15.4
45112;PMS5003;30873;53.908;27.576;2023-08-12T11:35:35;39.2;36;30
45112;PMS5003;30873;53.908;27.576;2023-08-12T11:40:29;32.1;29.1;24.5
45112;PMS5003;30873;53.908;27.576;2023-08-12T11:45:57;7;6.5;5.2
45112;PMS5003;30873;53.908;27.576;2023-08-12T11:50:31;10.9;10.6;9.4
45112;PMS5003;30873;53.908;27.576;2023-08-12T11:55:19;5.9;5.9;4.7
45112;PMS5003;30873;53.908;27.576;2023-08-12T12:00:49;6.4;5.9;4.4
45112;PMS5003;30873;53.908;27.576;2023-08-12T12:05:49;5.7;5.1;3.8
45112;PMS5003;30873;53.908;27.576;2023-08-12T12:10:27;6.1;5.5;4.1
45112;PMS5003;30873;53.908;27.576;2023-08-12T12:15:19;6.1;5.7;3.8
45112;PMS5003;30873;53.908;27.576;2023-08-12T12:20:59;7.6;7.3;6
45112;PMS5003;30873;53.908;27.576;2023-08-12T12:25:45;6.1;5.8;4.5
45112;PMS5003;30873;53.908;27.576;2023-08-12T12:30:35;7.1;6.6;5
45112;PMS5003;30873;53.908;27.576;2023-08-12T12:35:31;5.3;5.3;4
45112;PMS5003;30873;53.908;27.576;2023-08-12T12:40:59;5.4;5.3;3.8
45112;PMS5003;30873;53.908;27.576;2023-08-12T12:45:23;7.1;6.6;5.4
45112;PMS5003;30873;53.908;27.576;2023-08-12T12:50:49;6.9;6.5;5.1
45112;PMS5003;30873;53.908;27.576;2023-08-12T12:55:45;7.4;6.8;5.4
45112;PMS5003;30873;53.908;27.576;2023-08-12T13:00:49;5.8;5.5;4.1
45112;PMS5003;30873;53.908;27.576;2023-08-12T13:05:59;5.3;4.7;3.7
45112;PMS5003;30873;53.908;27.576;2023-08-12T13:10:31;6;5.5;4.1
45112;PMS5003;30873;53.908;27.576;2023-08-12T13:15:21;16.9;16.3;14
45112;PMS5003;30873;53.908;27.576;2023-08-12T13:20:41;13.7;13.5;11.8
45112;PMS5003;30873;53.908;27.576;2023-08-12T13:25:59;6.2;6.2;4.7
45112;PMS5003;30873;53.908;27.576;2023-08-12T13:30:59;6.6;6.4;5
45112;PMS5003;30873;53.908;27.576;2023-08-12T13:35:25;6.3;6;4.5
45112;PMS5003;30873;53.908;27.576;2023-08-12T13:40:45;5.9;5.7;4.3
45112;PMS5003;30873;53.908;27.576;2023-08-12T13:45:45;5.4;5.2;4.1
45112;PMS5003;30873;53.908;27.576;2023-08-12T13:50:37;6.4;6.2;4.8
45112;PMS5003;30873;53.908;27.576;2023-08-12T13:55:19;6.2;5.8;4.3
45112;PMS5003;30873;53.908;27.576;2023-08-12T14:00:59;5.9;5.8;4.7
45112;PMS5003;30873;53.908;27.576;2023-08-12T14:05:27;5.9;5.5;4.3
45112;PMS5003;30873;53.908;27.576;2023-08-12T14:10:59;5.8;5.4;4.4
45112;PMS5003;30873;53.908;27.576;2023-08-12T14:15:59;5;4.3;3.2
45112;PMS5003;30873;53.908;27.576;2023-08-12T14:20:21;5.1;4.8;3.6
45112;PMS5003;30873;53.908;27.576;2023-08-12T14:25:45;5.1;4.9;3.7
45112;PMS5003;30873;53.908;27.576;2023-08-12T14:30:33;5.7;5.6;4.2
45112;PMS5003;30873;53.908;27.576;2023-08-12T14:36:01;4.9;4.7;3.9
45112;PMS5003;30873;53.908;27.576;2023-08-12T14:40:31;6.4;6;4.5
45112;PMS5003;30873;53.908;27.576;2023-08-12T14:45:45;10.5;10.4;9.1
45112;PMS5003;30873;53.908;27.576;2023-08-12T14:50:59;5.6;5;3.4
45112;PMS5003;30873;53.908;27.576;2023-08-12T14:55:59;7;6.6;4.9
45112;PMS5003;30873;53.908;27.576;2023-08-12T15:00:27;5.6;5.2;4.1
45112;PMS5003;30873;53.908;27.576;2023-08-12T15:05:19;6;5.8;4.4
45112;PMS5003;30873;53.908;27.576;2023-08-12T15:10:45;6.3;6.1;4.7
45112;PMS5003;30873;53.908;27.576;2023-08-12T15:15:45;6.3;5.4;4
45112;PMS5003;30873;53.908;27.576;2023-08-12T15:20:35;5.3;5;3.7
45112;PMS5003;30873;53.908;27.576;2023-08-12T15:25:19;6.7;6;4.2
45112;PMS5003;30873;53.908;27.576;2023-08-12T15:30:31;5.7;5.3;3.7
45112;PMS5003;30873;53.908;27.576;2023-08-12T15:35:23;5.6;5.3;3.9
45112;PMS5003;30873;53.908;27.576;2023-08-12T15:40:32;5.4;5.1;3.9
45112;PMS5003;30873;53.908;27.576;2023-08-12T15:45:35;5.9;5.2;3.6
45112;PMS5003;30873;53.908;27.576;2023-08-12T15:50:55;6.1;5.6;4.4
45112;PMS5003;30873;53.908;27.576;2023-08-12T15:55:45;6.3;5.9;4.4
45112;PMS5003;30873;53.908;27.576;2023-08-12T16:00:35;6.2;5.6;4.4
45112;PMS5003;30873;53.908;27.576;2023-08-12T16:05:46;5.5;5.2;3.9
45112;PMS5003;30873;53.908;27.576;2023-08-12T16:10:47;5.7;5.4;4.2
45112;PMS5003;30873;53.908;27.576;2023-08-12T16:15:31;6.9;6.6;5.1
45112;PMS5003;30873;53.908;27.576;2023-08-12T16:20:35;7;6.4;5
45112;PMS5003;30873;53.908;27.576;2023-08-12T16:25:25;7.8;7.2;5.6
45112;PMS5003;30873;53.908;27.576;2023-08-12T16:30:49;6.5;6.2;4.8
45112;PMS5003;30873;53.908;27.576;2023-08-12T16:35:45;7.1;6.6;4.9
45112;PMS5003;30873;53.908;27.576;2023-08-12T16:40:35;6.7;6.2;5
45112;PMS5003;30873;53.908;27.576;2023-08-12T16:45:59;7;6.3;4.9
45112;PMS5003;30873;53.908;27.576;2023-08-12T16:50:59;6.9;6.4;5
45112;PMS5003;30873;53.908;27.576;2023-08-12T16:55:35;9.1;8.2;6.6
45112;PMS5003;30873;53.908;27.576;2023-08-12T17:00:19;7.9;7.5;6
45112;PMS5003;30873;53.908;27.576;2023-08-12T17:05:59;11.8;11.4;9
45112;PMS5003;30873;53.908;27.576;2023-08-12T17:10:23;7.6;7.4;5.8
45112;PMS5003;30873;53.908;27.576;2023-08-12T17:15:33;7.6;6.6;5.1
45112;PMS5003;30873;53.908;27.576;2023-08-12T17:20:25;8.1;7.1;5.4
45112;PMS5003;30873;53.908;27.576;2023-08-12T17:25:21;7.8;7.5;6.1
45112;PMS5003;30873;53.908;27.576;2023-08-12T17:30:55;7.5;7;5.3
45112;PMS5003;30873;53.908;27.576;2023-08-12T17:35:35;8;7;5.7
45112;PMS5003;30873;53.908;27.576;2023-08-12T17:40:59;8.9;8.1;6.1
45112;PMS5003;30873;53.908;27.576;2023-08-12T17:45:19;7.9;7.6;5.9
45112;PMS5003;30873;53.908;27.576;2023-08-12T17:50:59;7.8;7.3;5.7
45112;PMS5003;30873;53.908;27.576;2023-08-12T17:55:45;8.5;8.2;6
45112;PMS5003;30873;53.908;27.576;2023-08-12T18:00:33;8.1;7.8;5.8
45112;PMS5003;30873;53.908;27.576;2023-08-12T18:05:45;9.1;8;6.2
45112;PMS5003;30873;53.908;27.576;2023-08-12T18:10:45;9.3;8.3;5.6
45112;PMS5003;30873;53.908;27.576;2023-08-12T18:15:19;8;7.5;5.3
45112;PMS5003;30873;53.908;27.576;2023-08-12T18:20:23;8.2;7.4;5.2
45112;PMS5003;30873;53.908;27.576;2023-08-12T18:25:59;8.9;7.9;5.7
45112;PMS5003;30873;53.908;27.576;2023-08-12T18:30:45;8.3;7.1;5.2
45112;PMS5003;30873;53.908;27.576;2023-08-12T18:35:59;8.9;7.6;5.7
45112;PMS5003;30873;53.908;27.576;2023-08-12T18:41:01;8.8;7.8;5.8
45112;PMS5003;30873;53.908;27.576;2023-08-12T18:45:45;8.3;7.5;5.6
45112;PMS5003;30873;53.908;27.576;2023-08-12T18:50:23;8.2;7.6;5.9
45112;PMS5003;30873;53.908;27.576;2023-08-12T18:55:19;9.2;8.3;6.2
45112;PMS5003;30873;53.908;27.576;2023-08-12T19:01:01;8.4;6.7;5.3
45112;PMS5003;30873;53.908;27.576;2023-08-12T19:05:45;8.2;7.6;5.6
45112;PMS5003;30873;53.908;27.576;2023-08-12T19:10:23;9.9;8.2;6.2
45112;PMS5003;30873;53.908;27.576;2023-08-12T19:16:01;13.6;12.6;10.6
45112;PMS5003;30873;53.908;27.576;2023-08-12T19:20:59;17.6;16.4;14.7
45112;PMS5003;30873;53.908;27.576;2023-08-12T19:25:27;22.8;22.4;19.1
45112;PMS5003;30873;53.908;27.576;2023-08-12T19:30:47;30.9;30.5;25.2
45112;PMS5003;30873;53.908;27.576;2023-08-12T19:35:45;29.4;27.6;23.2
45112;PMS5003;30873;53.908;27.576;2023-08-12T19:40:43;16.8;15.8;14.2
45112;PMS5003;30873;53.908;27.576;2023-08-12T19:45:35;29.8;26.3;21.4
45112;PMS5003;30873;53.908;27.576;2023-08-12T19:50:23;25.7;24.8;21.1
45112;PMS5003;30873;53.908;27.576;2023-08-12T19:55:23;23.6;22.5;18.6
45112;PMS5003;30873;53.908;27.576;2023-08-12T20:00:23;10.1;9.2;7
45112;PMS5003;30873;53.908;27.576;2023-08-12T20:05:31;9.4;9;6.1
45112;PMS5003;30873;53.908;27.576;2023-08-12T20:10:35;9.9;9.1;6.1
45112;PMS5003;30873;53.908;27.576;2023-08-12T20:15:51;14.1;13.3;9.7
45112;PMS5003;30873;53.908;27.576;2023-08-12T20:21:01;12.3;11.3;8.3
45112;PMS5003;30873;53.908;27.576;2023-08-12T20:25:45;12.1;11.4;7.8
45112;PMS5003;30873;53.908;27.576;2023-08-12T20:30:23;12.9;11.5;8.3
45112;PMS5003;30873;53.908;27.576;2023-08-12T20:35:57;13;11.1;8
45112;PMS5003;30873;53.908;27.576;2023-08-12T20:40:31;14.6;13.3;9.3
45112;PMS5003;30873;53.908;27.576;2023-08-12T20:45:35;17;15.8;12.2
45112;PMS5003;30873;53.908;27.576;2023-08-12T20:50:51;11.3;10.5;7.5
45112;PMS5003;30873;53.908;27.576;2023-08-12T20:55:49;11.3;10.8;7.6
45112;PMS5003;30873;53.908;27.576;2023-08-12T21:00:31;11.6;10.9;7.3
45112;PMS5003;30873;53.908;27.576;2023-08-12T21:05:37;11.4;10;6.9
45112;PMS5003;30873;53.908;27.576;2023-08-12T21:11:01;10.7;9.4;6.3
45112;PMS5003;30873;53.908;27.576;2023-08-12T21:15:59;9.5;8.4;6.3
45112;PMS5003;30873;53.908;27.576;2023-08-12T21:20:19;10.4;9.3;6.2
45112;PMS5003;30873;53.908;27.576;2023-08-12T21:25:19;9.1;8;5.4
45112;PMS5003;30873;53.908;27.576;2023-08-12T21:30:57;8.8;8.1;5.7
45112;PMS5003;30873;53.908;27.576;2023-08-12T21:35:33;8.1;7;5.2
45112;PMS5003;30873;53.908;27.576;2023-08-12T21:40:35;8.1;7;5.3
45112;PMS5003;30873;53.908;27.576;2023-08-12T21:45:45;8.8;7.3;5.3
45112;PMS5003;30873;53.908;27.576;2023-08-12T21:50:37;8.1;7.1;5
45112;PMS5003;30873;53.908;27.576;2023-08-12T21:55:31;7.7;6.6;4.8
45112;PMS5003;30873;53.908;27.576;2023-08-12T22:00:31;7;6.1;4.5
45112;PMS5003;30873;53.908;27.576;2023-08-12T22:05:59;7.3;6.4;4.3
45112;PMS5003;30873;53.908;27.576;2023-08-12T22:10:19;7.8;6.5;4.6
45112;PMS5003;30873;53.908;27.576;2023-08-12T22:15:59;6.6;5.5;3.9
45112;PMS5003;30873;53.908;27.576;2023-08-12T22:20:45;6.7;6.3;4.2
45112;PMS5003;30873;53.908;27.576;2023-08-12T22:25:33;6.2;5.7;3.9
45112;PMS5003;30873;53.908;27.576;2023-08-12T22:30:33;6.4;5.7;4.4
45112;PMS5003;30873;53.908;27.576;2023-08-12T22:35:45;6.1;5;3.6
45112;PMS5003;30873;53.908;27.576;2023-08-12T22:40:19;5.4;4.9;3.4
45112;PMS5003;30873;53.908;27.576;2023-08-12T22:45:33;5.7;5.2;3.5
45112;PMS5003;30873;53.908;27.576;2023-08-12T22:50:59;5.4;5.1;3.6
45112;PMS5003;30873;53.908;27.576;2023-08-12T22:55:23;5.7;5.4;3.6
45112;PMS5003;30873;53.908;27.576;2023-08-12T23:00:59;5.7;5.2;3.4
45112;PMS5003;30873;53.908;27.576;2023-08-12T23:05:59;5;4.9;3.8
45112;PMS5003;30873;53.908;27.576;2023-08-12T23:10:45;5.4;4.6;3.1
45112;PMS5003;30873;53.908;27.576;2023-08-12T23:15:37;5.1;4.4;3.1
45112;PMS5003;30873;53.908;27.576;2023-08-12T23:20:19;5;4.5;3.3
45112;PMS5003;30873;53.908;27.576;2023-08-12T23:25:57;5.4;4.9;3.2
45112;PMS5003;30873;53.908;27.576;2023-08-12T23:30:45;5.6;4.6;3.1
45112;PMS5003;30873;53.908;27.576;2023-08-12T23:35:19;5.5;4.5;3.2
45112;PMS5003;30873;53.908;27.576;2023-08-12T23:40:45;5.4;4.7;3.1
45112;PMS5003;30873;53.908;27.576;2023-08-12T23:45:59;6.1;5.1;3.5
45112;PMS5003;30873;53.908;27.576;2023-08-12T23:50:23;8.5;8;5.9
45112;PMS5003;30873;53.908;27.576;2023-08-12T23:55:19;10.2;9.3;7.8
